National Geographic Sea Bird — WAK8004 — position and weather

sailwx.info

Track history (hours):
 
Tides and Currents Weather Stations Pressure Air Temp Water Temp Dewpoint Dewpoint Depression Visibility Wind Speed Wind Dir Waves Ship Positions

National Geographic Sea Bird

Owner: Lindblad Expeditions, Inc., SEATTLE, WA. More information available from US FCC via Universal Licensing System and Coast Guard Vessel Documentation Center.

Last reported at 2017-Jun-20 07:35 UTC. Time now 2017-Jul-21 02:33 UTC.
Position N 58°20' W 135°57'.
Warning: this ship's position is 30 days out of date.

Length 50 m; draft 2.7 m.

Type: Passenger vessel. MMSI: 366892350.

Date/timePositionNaut miles runAvg speedWind from/ knotsBaromVisibWave heightAir tempDewpointWater temp
2017-Jun-20 07:35N 58°20' W 135°57'110.3
2017-Jun-20 07:29N 58°22' W 135°57'5 9.7
2017-Jun-20 07:01N 58°26' W 135°56'2 4.2
2017-Jun-20 06:30N 58°27' W 135°53'0 0.0
2017-Jun-20 06:00N 58°27' W 135°53'0 0.0
2017-Jun-20 05:30N 58°27' W 135°53'0 0.0
2017-Jun-20 05:00N 58°27' W 135°53'0 0.0
2017-Jun-20 04:31N 58°27' W 135°53'0 0.6
2017-Jun-20 04:00N 58°27' W 135°54'3 6.8
2017-Jun-20 03:30N 58°27' W 136°00'4 7.5
2017-Jun-20 03:00N 58°30' W 136°04'510.1
2017-Jun-20 02:29N 58°35' W 136°09'5 0.5
2017-Jun-19 16:26N 58°39' W 136°04'1 2.7
2017-Jun-19 15:59N 58°38' W 136°02'4 8.6
2017-Jun-19 15:30N 58°34' W 136°03'611.5
2017-Jun-19 15:00N 58°28' W 136°02'4 8.2
2017-Jun-19 14:31N 58°27' W 135°55'3 3.1
2017-Jun-19 13:30N 58°24' W 135°58'7 0.9
2017-Jun-19 06:12N 58°18' W 136°01'  
2017-Jun-12 07:48N 58°20' W 135°57'3 9.0
2017-Jun-12 07:30N 58°23' W 135°58'4 8.5
2017-Jun-12 07:00N 58°27' W 135°55'1 2.6
2017-Jun-12 06:30N 58°27' W 135°53'0 0.0
2017-Jun-12 06:00N 58°27' W 135°53'0 0.0
2017-Jun-12 05:30N 58°27' W 135°53'0 0.0
2017-Jun-12 05:00N 58°27' W 135°53'0 0.0
2017-Jun-12 04:30N 58°27' W 135°53'0 0.3
2017-Jun-12 04:00N 58°27' W 135°53'3 6.7
2017-Jun-12 03:30N 58°26' W 135°59'611.8
2017-Jun-12 03:00N 58°32' W 136°04'7 0.7
2017-Jun-11 16:29N 58°39' W 136°03'2 5.1
2017-Jun-11 16:00N 58°37' W 136°03'5 9.5
2017-Jun-11 15:30N 58°32' W 136°04'4 7.7
2017-Jun-11 15:00N 58°28' W 136°02'5 4.8
2017-Jun-11 14:00N 58°27' W 135°53'0 0.0
2017-Jun-11 13:31N 58°27' W 135°53'2 4.7
2017-Jun-11 13:00N 58°26' W 135°56'5 9.1
2017-Jun-11 12:29N 58°21' W 135°59'  
Track history (hours):
 
Tides and Currents Weather Stations Pressure Air Temp Water Temp Dewpoint Dewpoint Depression Visibility Wind Speed Wind Dir Waves Ship Positions

National Geographic Sea Bird

Owner: Lindblad Expeditions, Inc., SEATTLE, WA. More information available from US FCC via Universal Licensing System and Coast Guard Vessel Documentation Center.

Last reported at 2017-Jun-20 07:35 UTC. Time now 2017-Jul-21 02:33 UTC.
Position N 58°20' W 135°57'.
Warning: this ship's position is 30 days out of date.

Length 50 m; draft 2.7 m.

Type: Passenger vessel. MMSI: 366892350.

Date/timePositionNaut miles runAvg speedWind from/ knotsBaromVisibWave heightAir tempDewpointWater temp
2017-Jun-20 07:35N 58°20' W 135°57'110.3
2017-Jun-20 07:29N 58°22' W 135°57'5 9.7
2017-Jun-20 07:01N 58°26' W 135°56'2 4.2
2017-Jun-20 06:30N 58°27' W 135°53'0 0.0
2017-Jun-20 06:00N 58°27' W 135°53'0 0.0
2017-Jun-20 05:30N 58°27' W 135°53'0 0.0
2017-Jun-20 05:00N 58°27' W 135°53'0 0.0
2017-Jun-20 04:31N 58°27' W 135°53'0 0.6
2017-Jun-20 04:00N 58°27' W 135°54'3 6.8
2017-Jun-20 03:30N 58°27' W 136°00'4 7.5
2017-Jun-20 03:00N 58°30' W 136°04'510.1
2017-Jun-20 02:29N 58°35' W 136°09'5 0.5
2017-Jun-19 16:26N 58°39' W 136°04'1 2.7
2017-Jun-19 15:59N 58°38' W 136°02'4 8.6
2017-Jun-19 15:30N 58°34' W 136°03'611.5
2017-Jun-19 15:00N 58°28' W 136°02'4 8.2
2017-Jun-19 14:31N 58°27' W 135°55'3 3.1
2017-Jun-19 13:30N 58°24' W 135°58'7 0.9
2017-Jun-19 06:12N 58°18' W 136°01'  
2017-Jun-12 07:48N 58°20' W 135°57'3 9.0
2017-Jun-12 07:30N 58°23' W 135°58'4 8.5
2017-Jun-12 07:00N 58°27' W 135°55'1 2.6
2017-Jun-12 06:30N 58°27' W 135°53'0 0.0
2017-Jun-12 06:00N 58°27' W 135°53'0 0.0
2017-Jun-12 05:30N 58°27' W 135°53'0 0.0
2017-Jun-12 05:00N 58°27' W 135°53'0 0.0
2017-Jun-12 04:30N 58°27' W 135°53'0 0.3
2017-Jun-12 04:00N 58°27' W 135°53'3 6.7
2017-Jun-12 03:30N 58°26' W 135°59'611.8
2017-Jun-12 03:00N 58°32' W 136°04'7 0.7
2017-Jun-11 16:29N 58°39' W 136°03'2 5.1
2017-Jun-11 16:00N 58°37' W 136°03'5 9.5
2017-Jun-11 15:30N 58°32' W 136°04'4 7.7
2017-Jun-11 15:00N 58°28' W 136°02'5 4.8
2017-Jun-11 14:00N 58°27' W 135°53'0 0.0
2017-Jun-11 13:31N 58°27' W 135°53'2 4.7
2017-Jun-11 13:00N 58°26' W 135°56'5 9.1
2017-Jun-11 12:29N 58°21' W 135°59'  

Dump ship's entire track history